sensor_id;sensor_type;location;lat;lon;timestamp;pressure;altitude;pressure_sealevel;temperature
70533;BMP180;58088;51.186;17.130;2024-02-28T00:00:24;100264.40;;;10.40
70533;BMP180;58088;51.186;17.130;2024-02-28T00:02:50;100266.40;;;10.40
70533;BMP180;58088;51.186;17.130;2024-02-28T00:05:16;100270.20;;;10.32
70533;BMP180;58088;51.186;17.130;2024-02-28T00:07:42;100275.80;;;10.30
70533;BMP180;58088;51.186;17.130;2024-02-28T00:10:09;100272.00;;;10.30
70533;BMP180;58088;51.186;17.130;2024-02-28T00:12:35;100276.20;;;10.30
70533;BMP180;58088;51.186;17.130;2024-02-28T00:15:02;100271.80;;;10.30
70533;BMP180;58088;51.186;17.130;2024-02-28T00:17:28;100275.80;;;10.30
70533;BMP180;58088;51.186;17.130;2024-02-28T00:19:54;100273.00;;;10.30
70533;BMP180;58088;51.186;17.130;2024-02-28T00:22:20;100278.60;;;10.32
70533;BMP180;58088;51.186;17.130;2024-02-28T00:24:46;100278.40;;;10.38
70533;BMP180;58088;51.186;17.130;2024-02-28T00:27:14;100275.60;;;10.34
70533;BMP180;58088;51.186;17.130;2024-02-28T00:29:40;100274.20;;;10.30
70533;BMP180;58088;51.186;17.130;2024-02-28T00:32:06;100279.60;;;10.30
70533;BMP180;58088;51.186;17.130;2024-02-28T00:34:32;100281.80;;;10.30
70533;BMP180;58088;51.186;17.130;2024-02-28T00:36:58;100278.80;;;10.30
70533;BMP180;58088;51.186;17.130;2024-02-28T00:39:24;100276.80;;;10.30
70533;BMP180;58088;51.186;17.130;2024-02-28T00:41:50;100283.60;;;10.30
70533;BMP180;58088;51.186;17.130;2024-02-28T00:44:16;100279.00;;;10.30
70533;BMP180;58088;51.186;17.130;2024-02-28T00:46:43;100277.80;;;10.30
70533;BMP180;58088;51.186;17.130;2024-02-28T00:49:09;100276.00;;;10.30
70533;BMP180;58088;51.186;17.130;2024-02-28T00:51:35;100273.60;;;10.30
70533;BMP180;58088;51.186;17.130;2024-02-28T00:54:03;100278.80;;;10.34
70533;BMP180;58088;51.186;17.130;2024-02-28T00:56:29;100280.00;;;10.38
70533;BMP180;58088;51.186;17.130;2024-02-28T00:58:55;100283.20;;;10.30
70533;BMP180;58088;51.186;17.130;2024-02-28T01:01:22;100278.60;;;10.40
70533;BMP180;58088;51.186;17.130;2024-02-28T01:03:48;100274.20;;;10.40
70533;BMP180;58088;51.186;17.130;2024-02-28T01:06:14;100281.20;;;10.40
70533;BMP180;58088;51.186;17.130;2024-02-28T01:08:42;100277.00;;;10.40
70533;BMP180;58088;51.186;17.130;2024-02-28T01:11:10;100276.60;;;10.40
70533;BMP180;58088;51.186;17.130;2024-02-28T01:13:36;100273.40;;;10.40
70533;BMP180;58088;51.186;17.130;2024-02-28T01:16:02;100274.80;;;10.40
70533;BMP180;58088;51.186;17.130;2024-02-28T01:18:29;100273.60;;;10.40
70533;BMP180;58088;51.186;17.130;2024-02-28T01:20:57;100272.80;;;10.40
70533;BMP180;58088;51.186;17.130;2024-02-28T01:23:23;100273.60;;;10.40
70533;BMP180;58088;51.186;17.130;2024-02-28T01:25:49;100274.60;;;10.40
70533;BMP180;58088;51.186;17.130;2024-02-28T01:28:15;100274.60;;;10.42
70533;BMP180;58088;51.186;17.130;2024-02-28T01:30:41;100277.20;;;10.50
70533;BMP180;58088;51.186;17.130;2024-02-28T01:33:08;100278.60;;;10.50
70533;BMP180;58088;51.186;17.130;2024-02-28T01:35:34;100271.00;;;10.42
70533;BMP180;58088;51.186;17.130;2024-02-28T01:38:00;100268.80;;;10.40
70533;BMP180;58088;51.186;17.130;2024-02-28T01:40:26;100281.20;;;10.40
70533;BMP180;58088;51.186;17.130;2024-02-28T01:42:53;100269.40;;;10.40
70533;BMP180;58088;51.186;17.130;2024-02-28T01:45:19;100274.40;;;10.40
70533;BMP180;58088;51.186;17.130;2024-02-28T01:47:45;100276.80;;;10.42
70533;BMP180;58088;51.186;17.130;2024-02-28T01:50:12;100273.60;;;10.40
70533;BMP180;58088;51.186;17.130;2024-02-28T01:52:39;100274.40;;;10.40
70533;BMP180;58088;51.186;17.130;2024-02-28T01:55:13;100275.60;;;10.46
70533;BMP180;58088;51.186;17.130;2024-02-28T01:57:40;100271.00;;;10.48
70533;BMP180;58088;51.186;17.130;2024-02-28T02:00:07;100270.40;;;10.50
70533;BMP180;58088;51.186;17.130;2024-02-28T02:02:37;100277.60;;;10.50
70533;BMP180;58088;51.186;17.130;2024-02-28T02:05:04;100270.40;;;10.50
70533;BMP180;58088;51.186;17.130;2024-02-28T02:07:31;100265.60;;;10.50
70533;BMP180;58088;51.186;17.130;2024-02-28T02:09:57;100263.80;;;10.50
70533;BMP180;58088;51.186;17.130;2024-02-28T02:12:23;100260.60;;;10.50
70533;BMP180;58088;51.186;17.130;2024-02-28T02:14:50;100256.80;;;10.50
70533;BMP180;58088;51.186;17.130;2024-02-28T02:17:16;100264.00;;;10.50
70533;BMP180;58088;51.186;17.130;2024-02-28T02:19:42;100259.80;;;10.50
70533;BMP180;58088;51.186;17.130;2024-02-28T02:22:10;100256.40;;;10.50
70533;BMP180;58088;51.186;17.130;2024-02-28T02:24:39;100262.60;;;10.50
70533;BMP180;58088;51.186;17.130;2024-02-28T02:27:05;100259.40;;;10.50
70533;BMP180;58088;51.186;17.130;2024-02-28T02:29:32;100256.20;;;10.40
70533;BMP180;58088;51.186;17.130;2024-02-28T02:31:58;100256.00;;;10.40
70533;BMP180;58088;51.186;17.130;2024-02-28T02:34:24;100254.40;;;10.40
70533;BMP180;58088;51.186;17.130;2024-02-28T02:37:10;100259.20;;;10.40
70533;BMP180;58088;51.186;17.130;2024-02-28T02:39:36;100263.00;;;10.44
70533;BMP180;58088;51.186;17.130;2024-02-28T02:42:03;100256.00;;;10.50
70533;BMP180;58088;51.186;17.130;2024-02-28T02:44:29;100253.80;;;10.50
70533;BMP180;58088;51.186;17.130;2024-02-28T02:46:55;100250.60;;;10.50
70533;BMP180;58088;51.186;17.130;2024-02-28T02:49:21;100253.00;;;10.50
70533;BMP180;58088;51.186;17.130;2024-02-28T02:51:47;100252.80;;;10.50
70533;BMP180;58088;51.186;17.130;2024-02-28T02:54:13;100249.40;;;10.50
70533;BMP180;58088;51.186;17.130;2024-02-28T02:56:43;100250.80;;;10.50
70533;BMP180;58088;51.186;17.130;2024-02-28T02:59:10;100255.20;;;10.50
70533;BMP180;58088;51.186;17.130;2024-02-28T03:02:07;100255.20;;;10.50
70533;BMP180;58088;51.186;17.130;2024-02-28T03:04:52;100258.20;;;10.50
70533;BMP180;58088;51.186;17.130;2024-02-28T03:07:18;100257.40;;;10.50
70533;BMP180;58088;51.186;17.130;2024-02-28T03:09:45;100254.20;;;10.50
70533;BMP180;58088;51.186;17.130;2024-02-28T03:12:12;100261.00;;;10.50
70533;BMP180;58088;51.186;17.130;2024-02-28T03:14:39;100260.00;;;10.46
70533;BMP180;58088;51.186;17.130;2024-02-28T03:17:06;100264.20;;;10.40
70533;BMP180;58088;51.186;17.130;2024-02-28T03:19:34;100266.60;;;10.40
70533;BMP180;58088;51.186;17.130;2024-02-28T03:22:02;100261.40;;;10.40
70533;BMP180;58088;51.186;17.130;2024-02-28T03:24:30;100265.00;;;10.40
70533;BMP180;58088;51.186;17.130;2024-02-28T03:26:57;100270.60;;;10.42
70533;BMP180;58088;51.186;17.130;2024-02-28T03:29:25;100266.60;;;10.44
70533;BMP180;58088;51.186;17.130;2024-02-28T03:31:53;100267.40;;;10.40
70533;BMP180;58088;51.186;17.130;2024-02-28T03:34:20;100266.60;;;10.40
70533;BMP180;58088;51.186;17.130;2024-02-28T03:36:48;100274.60;;;10.40
70533;BMP180;58088;51.186;17.130;2024-02-28T03:39:16;100272.00;;;10.40
70533;BMP180;58088;51.186;17.130;2024-02-28T03:41:43;100268.20;;;10.40
70533;BMP180;58088;51.186;17.130;2024-02-28T03:44:11;100275.80;;;10.40
70533;BMP180;58088;51.186;17.130;2024-02-28T03:46:39;100273.80;;;10.42
70533;BMP180;58088;51.186;17.130;2024-02-28T03:49:06;100270.60;;;10.50
70533;BMP180;58088;51.186;17.130;2024-02-28T03:51:42;100270.80;;;10.46
70533;BMP180;58088;51.186;17.130;2024-02-28T03:54:09;100275.60;;;10.50
70533;BMP180;58088;51.186;17.130;2024-02-28T03:56:35;100270.40;;;10.50
70533;BMP180;58088;51.186;17.130;2024-02-28T03:59:01;100273.40;;;10.48
70533;BMP180;58088;51.186;17.130;2024-02-28T04:01:27;100279.40;;;10.50
70533;BMP180;58088;51.186;17.130;2024-02-28T04:03:54;100280.60;;;10.50
70533;BMP180;58088;51.186;17.130;2024-02-28T04:06:20;100282.60;;;10.44
70533;BMP180;58088;51.186;17.130;2024-02-28T04:08:46;100287.80;;;10.40
70533;BMP180;58088;51.186;17.130;2024-02-28T04:11:13;100287.20;;;10.40
70533;BMP180;58088;51.186;17.130;2024-02-28T04:13:40;100288.20;;;10.40
70533;BMP180;58088;51.186;17.130;2024-02-28T04:16:09;100286.40;;;10.40
70533;BMP180;58088;51.186;17.130;2024-02-28T04:18:36;100290.00;;;10.40
70533;BMP180;58088;51.186;17.130;2024-02-28T04:21:02;100292.00;;;10.40
70533;BMP180;58088;51.186;17.130;2024-02-28T04:23:28;100295.20;;;10.40
70533;BMP180;58088;51.186;17.130;2024-02-28T04:25:54;100297.60;;;10.40
70533;BMP180;58088;51.186;17.130;2024-02-28T04:28:21;100300.80;;;10.40
70533;BMP180;58088;51.186;17.130;2024-02-28T04:30:47;100304.00;;;10.40
70533;BMP180;58088;51.186;17.130;2024-02-28T04:33:13;100305.20;;;10.40
70533;BMP180;58088;51.186;17.130;2024-02-28T04:35:39;100314.60;;;10.40
70533;BMP180;58088;51.186;17.130;2024-02-28T04:38:05;100313.60;;;10.40
70533;BMP180;58088;51.186;17.130;2024-02-28T04:40:32;100309.60;;;10.40
70533;BMP180;58088;51.186;17.130;2024-02-28T04:42:58;100304.60;;;10.40
70533;BMP180;58088;51.186;17.130;2024-02-28T04:45:24;100302.20;;;10.40
70533;BMP180;58088;51.186;17.130;2024-02-28T04:47:51;100309.00;;;10.38
70533;BMP180;58088;51.186;17.130;2024-02-28T04:50:21;100312.20;;;10.32
70533;BMP180;58088;51.186;17.130;2024-02-28T04:52:47;100314.20;;;10.30
70533;BMP180;58088;51.186;17.130;2024-02-28T04:55:13;100313.60;;;10.30
70533;BMP180;58088;51.186;17.130;2024-02-28T04:57:39;100317.20;;;10.30
70533;BMP180;58088;51.186;17.130;2024-02-28T05:00:06;100325.40;;;10.30
70533;BMP180;58088;51.186;17.130;2024-02-28T05:02:37;100327.00;;;10.30
70533;BMP180;58088;51.186;17.130;2024-02-28T05:05:07;100327.20;;;10.30
70533;BMP180;58088;51.186;17.130;2024-02-28T05:07:33;100335.20;;;10.30
70533;BMP180;58088;51.186;17.130;2024-02-28T05:09:59;100324.40;;;10.22
70533;BMP180;58088;51.186;17.130;2024-02-28T05:12:25;100325.40;;;10.20
70533;BMP180;58088;51.186;17.130;2024-02-28T05:14:51;100325.80;;;10.20
70533;BMP180;58088;51.186;17.130;2024-02-28T05:17:18;100331.80;;;10.20
70533;BMP180;58088;51.186;17.130;2024-02-28T05:19:44;100329.80;;;10.20
70533;BMP180;58088;51.186;17.130;2024-02-28T05:22:10;100336.80;;;10.20
70533;BMP180;58088;51.186;17.130;2024-02-28T05:24:37;100342.20;;;10.16
70533;BMP180;58088;51.186;17.130;2024-02-28T05:27:03;100341.60;;;10.10
70533;BMP180;58088;51.186;17.130;2024-02-28T05:29:29;100349.40;;;10.10
70533;BMP180;58088;51.186;17.130;2024-02-28T05:31:55;100354.40;;;10.10
70533;BMP180;58088;51.186;17.130;2024-02-28T05:34:22;100353.00;;;10.10
70533;BMP180;58088;51.186;17.130;2024-02-28T05:36:48;100353.80;;;10.10
70533;BMP180;58088;51.186;17.130;2024-02-28T05:39:16;100354.80;;;10.10
70533;BMP180;58088;51.186;17.130;2024-02-28T05:41:42;100357.00;;;10.10
70533;BMP180;58088;51.186;17.130;2024-02-28T05:44:08;100352.40;;;10.10
70533;BMP180;58088;51.186;17.130;2024-02-28T05:46:34;100357.40;;;10.10
70533;BMP180;58088;51.186;17.130;2024-02-28T05:49:04;100355.80;;;10.04
70533;BMP180;58088;51.186;17.130;2024-02-28T05:51:30;100359.40;;;10.06
70533;BMP180;58088;51.186;17.130;2024-02-28T05:53:56;100360.40;;;10.04
70533;BMP180;58088;51.186;17.130;2024-02-28T05:56:22;100366.00;;;10.10
70533;BMP180;58088;51.186;17.130;2024-02-28T05:58:48;100370.20;;;10.10
70533;BMP180;58088;51.186;17.130;2024-02-28T06:01:17;100370.60;;;10.10
70533;BMP180;58088;51.186;17.130;2024-02-28T06:03:48;100372.00;;;10.10
70533;BMP180;58088;51.186;17.130;2024-02-28T06:06:15;100381.20;;;10.10
70533;BMP180;58088;51.186;17.130;2024-02-28T06:08:42;100383.20;;;10.10
70533;BMP180;58088;51.186;17.130;2024-02-28T06:11:09;100386.00;;;10.10
70533;BMP180;58088;51.186;17.130;2024-02-28T06:13:36;100388.40;;;10.10
70533;BMP180;58088;51.186;17.130;2024-02-28T06:16:03;100385.00;;;10.10
70533;BMP180;58088;51.186;17.130;2024-02-28T06:18:29;100391.60;;;10.20
70533;BMP180;58088;51.186;17.130;2024-02-28T06:20:59;100392.80;;;10.20
70533;BMP180;58088;51.186;17.130;2024-02-28T06:23:29;100396.20;;;10.20
70533;BMP180;58088;51.186;17.130;2024-02-28T06:25:58;100392.00;;;10.20
70533;BMP180;58088;51.186;17.130;2024-02-28T06:28:25;100399.60;;;10.20
70533;BMP180;58088;51.186;17.130;2024-02-28T06:30:52;100402.60;;;10.30
70533;BMP180;58088;51.186;17.130;2024-02-28T06:33:18;100398.40;;;10.30
70533;BMP180;58088;51.186;17.130;2024-02-28T06:35:44;100399.80;;;10.30
70533;BMP180;58088;51.186;17.130;2024-02-28T06:38:11;100398.00;;;10.30
70533;BMP180;58088;51.186;17.130;2024-02-28T06:40:37;100401.40;;;10.38
70533;BMP180;58088;51.186;17.130;2024-02-28T06:43:04;100407.40;;;10.40
70533;BMP180;58088;51.186;17.130;2024-02-28T06:45:31;100410.40;;;10.40
70533;BMP180;58088;51.186;17.130;2024-02-28T06:47:58;100407.00;;;10.44
70533;BMP180;58088;51.186;17.130;2024-02-28T06:50:27;100405.20;;;10.50
70533;BMP180;58088;51.186;17.130;2024-02-28T06:52:53;100405.60;;;10.50
70533;BMP180;58088;51.186;17.130;2024-02-28T06:55:20;100407.40;;;10.58
70533;BMP180;58088;51.186;17.130;2024-02-28T06:57:46;100409.00;;;10.60
70533;BMP180;58088;51.186;17.130;2024-02-28T07:00:13;100412.40;;;10.56
70533;BMP180;58088;51.186;17.130;2024-02-28T07:02:41;100412.20;;;10.50
70533;BMP180;58088;51.186;17.130;2024-02-28T07:05:08;100418.20;;;10.50
70533;BMP180;58088;51.186;17.130;2024-02-28T07:07:34;100416.60;;;10.50
70533;BMP180;58088;51.186;17.130;2024-02-28T07:10:03;100421.20;;;10.52
70533;BMP180;58088;51.186;17.130;2024-02-28T07:12:31;100423.60;;;10.58
70533;BMP180;58088;51.186;17.130;2024-02-28T07:14:57;100429.80;;;10.60
70533;BMP180;58088;51.186;17.130;2024-02-28T07:17:23;100437.20;;;10.60
70533;BMP180;58088;51.186;17.130;2024-02-28T07:19:49;100432.40;;;10.60
70533;BMP180;58088;51.186;17.130;2024-02-28T07:22:17;100435.60;;;10.60
70533;BMP180;58088;51.186;17.130;2024-02-28T07:24:44;100436.40;;;10.60
70533;BMP180;58088;51.186;17.130;2024-02-28T07:27:10;100440.00;;;10.60
70533;BMP180;58088;51.186;17.130;2024-02-28T07:29:38;100441.20;;;10.60
70533;BMP180;58088;51.186;17.130;2024-02-28T07:32:05;100447.80;;;10.60
70533;BMP180;58088;51.186;17.130;2024-02-28T07:34:32;100448.60;;;10.70
70533;BMP180;58088;51.186;17.130;2024-02-28T07:36:58;100451.20;;;10.70
70533;BMP180;58088;51.186;17.130;2024-02-28T07:39:24;100453.60;;;10.70
70533;BMP180;58088;51.186;17.130;2024-02-28T07:41:51;100457.60;;;10.70
70533;BMP180;58088;51.186;17.130;2024-02-28T07:44:17;100457.60;;;10.70
70533;BMP180;58088;51.186;17.130;2024-02-28T07:46:43;100458.60;;;10.70
70533;BMP180;58088;51.186;17.130;2024-02-28T07:49:10;100454.60;;;10.70
70533;BMP180;58088;51.186;17.130;2024-02-28T07:51:36;100463.00;;;10.80
70533;BMP180;58088;51.186;17.130;2024-02-28T07:54:03;100464.40;;;10.80
70533;BMP180;58088;51.186;17.130;2024-02-28T07:56:29;100466.40;;;10.90
70533;BMP180;58088;51.186;17.130;2024-02-28T07:58:55;100466.20;;;10.90
70533;BMP180;58088;51.186;17.130;2024-02-28T08:01:22;100467.20;;;10.98
70533;BMP180;58088;51.186;17.130;2024-02-28T08:03:51;100467.00;;;11.00
70533;BMP180;58088;51.186;17.130;2024-02-28T08:06:18;100471.80;;;11.00
70533;BMP180;58088;51.186;17.130;2024-02-28T08:08:45;100475.40;;;11.00
70533;BMP180;58088;51.186;17.130;2024-02-28T08:11:12;100474.40;;;11.10
70533;BMP180;58088;51.186;17.130;2024-02-28T08:13:39;100472.20;;;11.10
70533;BMP180;58088;51.186;17.130;2024-02-28T08:16:05;100475.40;;;11.12
70533;BMP180;58088;51.186;17.130;2024-02-28T08:18:34;100474.00;;;11.16
70533;BMP180;58088;51.186;17.130;2024-02-28T08:21:01;100480.40;;;11.20
70533;BMP180;58088;51.186;17.130;2024-02-28T08:23:31;100482.40;;;11.20
70533;BMP180;58088;51.186;17.130;2024-02-28T08:25:57;100488.60;;;11.20
70533;BMP180;58088;51.186;17.130;2024-02-28T08:28:24;100481.60;;;11.20
70533;BMP180;58088;51.186;17.130;2024-02-28T08:30:50;100486.00;;;11.20
70533;BMP180;58088;51.186;17.130;2024-02-28T08:33:16;100490.40;;;11.30
70533;BMP180;58088;51.186;17.130;2024-02-28T08:35:43;100492.20;;;11.30
70533;BMP180;58088;51.186;17.130;2024-02-28T08:38:09;100492.60;;;11.30
70533;BMP180;58088;51.186;17.130;2024-02-28T08:40:35;100494.20;;;11.40
70533;BMP180;58088;51.186;17.130;2024-02-28T08:43:02;100491.00;;;11.40
70533;BMP180;58088;51.186;17.130;2024-02-28T08:45:28;100490.40;;;11.40
70533;BMP180;58088;51.186;17.130;2024-02-28T08:47:57;100497.20;;;11.40
70533;BMP180;58088;51.186;17.130;2024-02-28T08:50:27;100500.60;;;11.40
70533;BMP180;58088;51.186;17.130;2024-02-28T08:52:55;100494.80;;;11.42
70533;BMP180;58088;51.186;17.130;2024-02-28T08:55:21;100502.00;;;11.50
70533;BMP180;58088;51.186;17.130;2024-02-28T08:58:09;100502.60;;;11.50
70533;BMP180;58088;51.186;17.130;2024-02-28T09:00:36;100506.20;;;11.50
70533;BMP180;58088;51.186;17.130;2024-02-28T09:03:04;100504.80;;;11.50
70533;BMP180;58088;51.186;17.130;2024-02-28T09:05:30;100502.60;;;11.50
70533;BMP180;58088;51.186;17.130;2024-02-28T09:07:56;100503.40;;;11.46
70533;BMP180;58088;51.186;17.130;2024-02-28T09:10:24;100504.60;;;11.42
70533;BMP180;58088;51.186;17.130;2024-02-28T09:12:50;100508.60;;;11.48
70533;BMP180;58088;51.186;17.130;2024-02-28T09:15:16;100507.80;;;11.50
70533;BMP180;58088;51.186;17.130;2024-02-28T09:17:43;100510.40;;;11.50
70533;BMP180;58088;51.186;17.130;2024-02-28T09:20:10;100513.00;;;11.44
70533;BMP180;58088;51.186;17.130;2024-02-28T09:22:38;100516.20;;;11.50
70533;BMP180;58088;51.186;17.130;2024-02-28T09:25:05;100519.20;;;11.50
70533;BMP180;58088;51.186;17.130;2024-02-28T09:27:31;100520.20;;;11.50
70533;BMP180;58088;51.186;17.130;2024-02-28T09:29:58;100520.00;;;11.40
70533;BMP180;58088;51.186;17.130;2024-02-28T09:32:24;100526.80;;;11.40
70533;BMP180;58088;51.186;17.130;2024-02-28T09:34:50;100525.20;;;11.36
70533;BMP180;58088;51.186;17.130;2024-02-28T09:37:16;100527.20;;;11.30
70533;BMP180;58088;51.186;17.130;2024-02-28T09:39:43;100529.40;;;11.30
70533;BMP180;58088;51.186;17.130;2024-02-28T09:42:10;100528.00;;;11.20
70533;BMP180;58088;51.186;17.130;2024-02-28T09:44:37;100537.80;;;11.20
70533;BMP180;58088;51.186;17.130;2024-02-28T09:47:04;100536.40;;;11.20
70533;BMP180;58088;51.186;17.130;2024-02-28T09:49:32;100536.20;;;11.10
70533;BMP180;58088;51.186;17.130;2024-02-28T09:52:01;100539.80;;;11.12
70533;BMP180;58088;51.186;17.130;2024-02-28T09:54:29;100547.00;;;11.10
70533;BMP180;58088;51.186;17.130;2024-02-28T09:56:59;100548.20;;;11.10
70533;BMP180;58088;51.186;17.130;2024-02-28T09:59:33;100553.60;;;11.00
70533;BMP180;58088;51.186;17.130;2024-02-28T10:02:03;100553.00;;;11.00
70533;BMP180;58088;51.186;17.130;2024-02-28T10:04:30;100550.60;;;11.00
70533;BMP180;58088;51.186;17.130;2024-02-28T10:06:57;100557.20;;;11.00
70533;BMP180;58088;51.186;17.130;2024-02-28T10:09:25;100562.00;;;11.00
70533;BMP180;58088;51.186;17.130;2024-02-28T10:11:52;100557.20;;;11.00
70533;BMP180;58088;51.186;17.130;2024-02-28T10:14:18;100557.40;;;11.00
70533;BMP180;58088;51.186;17.130;2024-02-28T10:16:45;100560.80;;;11.00
70533;BMP180;58088;51.186;17.130;2024-02-28T10:19:12;100562.00;;;11.00
70533;BMP180;58088;51.186;17.130;2024-02-28T10:21:38;100570.80;;;11.00
70533;BMP180;58088;51.186;17.130;2024-02-28T10:24:05;100576.00;;;11.00
70533;BMP180;58088;51.186;17.130;2024-02-28T10:26:31;100574.00;;;10.90
70533;BMP180;58088;51.186;17.130;2024-02-28T10:29:03;100573.80;;;10.90
70533;BMP180;58088;51.186;17.130;2024-02-28T10:31:32;100577.60;;;10.90
70533;BMP180;58088;51.186;17.130;2024-02-28T10:34:02;100572.20;;;10.80
70533;BMP180;58088;51.186;17.130;2024-02-28T10:36:32;100577.60;;;10.80
70533;BMP180;58088;51.186;17.130;2024-02-28T10:39:00;100578.20;;;10.84
70533;BMP180;58088;51.186;17.130;2024-02-28T10:41:28;100582.00;;;10.82
70533;BMP180;58088;51.186;17.130;2024-02-28T10:43:54;100585.60;;;10.88
70533;BMP180;58088;51.186;17.130;2024-02-28T10:46:21;100584.80;;;10.80
70533;BMP180;58088;51.186;17.130;2024-02-28T10:48:50;100592.00;;;10.80
70533;BMP180;58088;51.186;17.130;2024-02-28T10:51:24;100592.80;;;10.80
70533;BMP180;58088;51.186;17.130;2024-02-28T10:54:12;100594.00;;;10.90
70533;BMP180;58088;51.186;17.130;2024-02-28T10:56:40;100589.40;;;10.80
70533;BMP180;58088;51.186;17.130;2024-02-28T10:59:10;100596.20;;;10.80
70533;BMP180;58088;51.186;17.130;2024-02-28T11:01:43;100597.00;;;10.80
70533;BMP180;58088;51.186;17.130;2024-02-28T11:04:16;100601.00;;;10.80
70533;BMP180;58088;51.186;17.130;2024-02-28T11:06:55;100604.40;;;10.80
70533;BMP180;58088;51.186;17.130;2024-02-28T11:09:31;100613.00;;;10.80
70533;BMP180;58088;51.186;17.130;2024-02-28T11:11:58;100609.60;;;10.70
70533;BMP180;58088;51.186;17.130;2024-02-28T11:14:26;100609.00;;;10.70
70533;BMP180;58088;51.186;17.130;2024-02-28T11:17:04;100615.00;;;10.70
70533;BMP180;58088;51.186;17.130;2024-02-28T11:19:33;100614.60;;;10.70
70533;BMP180;58088;51.186;17.130;2024-02-28T11:22:05;100613.20;;;10.62
70533;BMP180;58088;51.186;17.130;2024-02-28T11:24:34;100614.60;;;10.64
70533;BMP180;58088;51.186;17.130;2024-02-28T11:27:01;100619.20;;;10.70
70533;BMP180;58088;51.186;17.130;2024-02-28T11:29:30;100620.60;;;10.70
70533;BMP180;58088;51.186;17.130;2024-02-28T11:31:59;100622.00;;;10.70
70533;BMP180;58088;51.186;17.130;2024-02-28T11:34:37;100627.00;;;10.70
70533;BMP180;58088;51.186;17.130;2024-02-28T11:37:06;100626.80;;;10.70
70533;BMP180;58088;51.186;17.130;2024-02-28T11:39:35;100626.60;;;10.80
70533;BMP180;58088;51.186;17.130;2024-02-28T11:42:28;100628.00;;;10.80
70533;BMP180;58088;51.186;17.130;2024-02-28T11:44:55;100628.80;;;10.72
70533;BMP180;58088;51.186;17.130;2024-02-28T11:47:24;100633.60;;;10.80
70533;BMP180;58088;51.186;17.130;2024-02-28T11:49:50;100629.20;;;10.80
70533;BMP180;58088;51.186;17.130;2024-02-28T11:52:16;100633.60;;;10.90
70533;BMP180;58088;51.186;17.130;2024-02-28T11:54:43;100632.60;;;10.80
70533;BMP180;58088;51.186;17.130;2024-02-28T11:57:11;100641.40;;;10.80
70533;BMP180;58088;51.186;17.130;2024-02-28T11:59:40;100644.20;;;10.80
70533;BMP180;58088;51.186;17.130;2024-02-28T12:02:13;100646.80;;;10.80
70533;BMP180;58088;51.186;17.130;2024-02-28T12:04:44;100639.80;;;10.72
70533;BMP180;58088;51.186;17.130;2024-02-28T12:07:11;100641.60;;;10.70
70533;BMP180;58088;51.186;17.130;2024-02-28T12:09:38;100642.80;;;10.70
70533;BMP180;58088;51.186;17.130;2024-02-28T12:12:07;100648.60;;;10.60
70533;BMP180;58088;51.186;17.130;2024-02-28T12:14:37;100652.60;;;10.60
70533;BMP180;58088;51.186;17.130;2024-02-28T12:17:08;100657.00;;;10.58
70533;BMP180;58088;51.186;17.130;2024-02-28T12:19:39;100655.40;;;10.50
70533;BMP180;58088;51.186;17.130;2024-02-28T12:22:13;100659.00;;;10.50
70533;BMP180;58088;51.186;17.130;2024-02-28T12:24:40;100660.20;;;10.50
70533;BMP180;58088;51.186;17.130;2024-02-28T12:27:06;100657.20;;;10.50
70533;BMP180;58088;51.186;17.130;2024-02-28T12:29:36;100658.80;;;10.48
70533;BMP180;58088;51.186;17.130;2024-02-28T12:32:03;100654.60;;;10.50
70533;BMP180;58088;51.186;17.130;2024-02-28T12:34:32;100654.20;;;10.50
70533;BMP180;58088;51.186;17.130;2024-02-28T12:36:58;100655.00;;;10.46
70533;BMP180;58088;51.186;17.130;2024-02-28T12:39:28;100651.80;;;10.48
70533;BMP180;58088;51.186;17.130;2024-02-28T12:41:55;100651.80;;;10.40
70533;BMP180;58088;51.186;17.130;2024-02-28T12:44:24;100651.00;;;10.40
70533;BMP180;58088;51.186;17.130;2024-02-28T12:46:50;100655.80;;;10.40
70533;BMP180;58088;51.186;17.130;2024-02-28T12:49:18;100659.80;;;10.40
70533;BMP180;58088;51.186;17.130;2024-02-28T12:51:45;100666.20;;;10.40
70533;BMP180;58088;51.186;17.130;2024-02-28T12:54:14;100664.40;;;10.40
70533;BMP180;58088;51.186;17.130;2024-02-28T12:56:41;100673.80;;;10.38
70533;BMP180;58088;51.186;17.130;2024-02-28T12:59:13;100667.60;;;10.40
70533;BMP180;58088;51.186;17.130;2024-02-28T13:01:40;100676.40;;;10.30
70533;BMP180;58088;51.186;17.130;2024-02-28T13:04:07;100680.40;;;10.30
70533;BMP180;58088;51.186;17.130;2024-02-28T13:06:34;100678.40;;;10.28
70533;BMP180;58088;51.186;17.130;2024-02-28T13:09:01;100676.40;;;10.20
70533;BMP180;58088;51.186;17.130;2024-02-28T13:11:32;100683.00;;;10.22
70533;BMP180;58088;51.186;17.130;2024-02-28T13:14:00;100676.20;;;10.24
70533;BMP180;58088;51.186;17.130;2024-02-28T13:16:27;100672.60;;;10.20
70533;BMP180;58088;51.186;17.130;2024-02-28T13:18:53;100680.60;;;10.20
70533;BMP180;58088;51.186;17.130;2024-02-28T13:21:20;100679.80;;;10.10
70533;BMP180;58088;51.186;17.130;2024-02-28T13:23:48;100679.80;;;10.08
70533;BMP180;58088;51.186;17.130;2024-02-28T13:26:15;100682.40;;;10.08
70533;BMP180;58088;51.186;17.130;2024-02-28T13:28:47;100680.80;;;10.06
70533;BMP180;58088;51.186;17.130;2024-02-28T13:31:18;100686.40;;;10.00
70533;BMP180;58088;51.186;17.130;2024-02-28T13:33:47;100678.20;;;10.00
70533;BMP180;58088;51.186;17.130;2024-02-28T13:36:33;100679.60;;;9.98
70533;BMP180;58088;51.186;17.130;2024-02-28T13:39:03;100681.60;;;9.98
70533;BMP180;58088;51.186;17.130;2024-02-28T13:41:30;100680.60;;;9.98
70533;BMP180;58088;51.186;17.130;2024-02-28T13:43:57;100682.20;;;9.92
70533;BMP180;58088;51.186;17.130;2024-02-28T13:46:23;100686.20;;;9.98